sensor_id;sensor_type;location;lat;lon;timestamp;P1;durP1;ratioP1;P2;durP2;ratioP2
18200;SDS011;9226;47.858;9.594;2024-01-11T00:00:20;55.67;;;17.80;;
18200;SDS011;9226;47.858;9.594;2024-01-11T00:02:46;67.03;;;18.80;;
18200;SDS011;9226;47.858;9.594;2024-01-11T00:05:11;51.23;;;17.47;;
18200;SDS011;9226;47.858;9.594;2024-01-11T00:07:37;53.47;;;16.83;;
18200;SDS011;9226;47.858;9.594;2024-01-11T00:10:02;47.40;;;16.17;;
18200;SDS011;9226;47.858;9.594;2024-01-11T00:12:28;53.90;;;16.30;;
18200;SDS011;9226;47.858;9.594;2024-01-11T00:14:54;60.53;;;18.07;;
18200;SDS011;9226;47.858;9.594;2024-01-11T00:17:19;57.27;;;17.27;;
18200;SDS011;9226;47.858;9.594;2024-01-11T00:19:45;55.40;;;17.17;;
18200;SDS011;9226;47.858;9.594;2024-01-11T00:22:10;57.17;;;18.90;;
18200;SDS011;9226;47.858;9.594;2024-01-11T00:24:35;57.60;;;17.43;;
18200;SDS011;9226;47.858;9.594;2024-01-11T00:27:01;67.33;;;18.03;;
18200;SDS011;9226;47.858;9.594;2024-01-11T00:29:26;54.47;;;18.17;;
18200;SDS011;9226;47.858;9.594;2024-01-11T00:31:53;52.63;;;16.80;;
18200;SDS011;9226;47.858;9.594;2024-01-11T00:34:18;64.67;;;18.37;;
18200;SDS011;9226;47.858;9.594;2024-01-11T00:36:44;67.80;;;18.57;;
18200;SDS011;9226;47.858;9.594;2024-01-11T00:39:09;68.03;;;17.53;;
18200;SDS011;9226;47.858;9.594;2024-01-11T00:41:36;67.47;;;19.27;;
18200;SDS011;9226;47.858;9.594;2024-01-11T00:44:02;60.30;;;17.47;;
18200;SDS011;9226;47.858;9.594;2024-01-11T00:46:28;64.63;;;18.40;;
18200;SDS011;9226;47.858;9.594;2024-01-11T00:48:53;54.10;;;17.70;;
18200;SDS011;9226;47.858;9.594;2024-01-11T00:51:19;62.23;;;18.47;;
18200;SDS011;9226;47.858;9.594;2024-01-11T00:53:44;64.10;;;16.97;;
18200;SDS011;9226;47.858;9.594;2024-01-11T00:56:19;65.60;;;19.10;;
18200;SDS011;9226;47.858;9.594;2024-01-11T00:58:45;71.23;;;19.30;;
18200;SDS011;9226;47.858;9.594;2024-01-11T01:01:10;75.77;;;19.47;;
18200;SDS011;9226;47.858;9.594;2024-01-11T01:03:36;64.13;;;18.73;;
18200;SDS011;9226;47.858;9.594;2024-01-11T01:06:02;77.87;;;20.00;;
18200;SDS011;9226;47.858;9.594;2024-01-11T01:08:28;58.83;;;18.60;;
18200;SDS011;9226;47.858;9.594;2024-01-11T01:10:53;79.90;;;20.63;;
18200;SDS011;9226;47.858;9.594;2024-01-11T01:13:19;64.13;;;19.13;;
18200;SDS011;9226;47.858;9.594;2024-01-11T01:15:45;57.90;;;18.40;;
18200;SDS011;9226;47.858;9.594;2024-01-11T01:18:10;56.27;;;19.30;;
18200;SDS011;9226;47.858;9.594;2024-01-11T01:20:36;67.10;;;18.63;;
18200;SDS011;9226;47.858;9.594;2024-01-11T01:23:01;62.13;;;19.57;;
18200;SDS011;9226;47.858;9.594;2024-01-11T01:25:27;64.33;;;18.97;;
18200;SDS011;9226;47.858;9.594;2024-01-11T01:27:52;72.27;;;19.03;;
18200;SDS011;9226;47.858;9.594;2024-01-11T01:30:18;77.53;;;20.90;;
18200;SDS011;9226;47.858;9.594;2024-01-11T01:32:43;71.17;;;18.90;;
18200;SDS011;9226;47.858;9.594;2024-01-11T01:35:09;59.57;;;19.47;;
18200;SDS011;9226;47.858;9.594;2024-01-11T01:37:34;65.60;;;19.27;;
18200;SDS011;9226;47.858;9.594;2024-01-11T01:40:00;59.23;;;17.27;;
18200;SDS011;9226;47.858;9.594;2024-01-11T01:42:25;70.50;;;19.20;;
18200;SDS011;9226;47.858;9.594;2024-01-11T01:44:51;69.93;;;20.10;;
18200;SDS011;9226;47.858;9.594;2024-01-11T01:47:16;64.73;;;19.53;;
18200;SDS011;9226;47.858;9.594;2024-01-11T01:49:43;60.00;;;17.87;;
18200;SDS011;9226;47.858;9.594;2024-01-11T01:52:09;68.77;;;18.77;;
18200;SDS011;9226;47.858;9.594;2024-01-11T01:54:37;66.83;;;18.87;;
18200;SDS011;9226;47.858;9.594;2024-01-11T01:57:02;61.97;;;17.93;;
18200;SDS011;9226;47.858;9.594;2024-01-11T01:59:28;52.00;;;17.37;;
18200;SDS011;9226;47.858;9.594;2024-01-11T02:01:55;59.93;;;17.37;;
18200;SDS011;9226;47.858;9.594;2024-01-11T02:04:21;66.67;;;18.50;;
18200;SDS011;9226;47.858;9.594;2024-01-11T02:06:47;67.47;;;19.03;;
18200;SDS011;9226;47.858;9.594;2024-01-11T02:09:14;64.10;;;18.80;;
18200;SDS011;9226;47.858;9.594;2024-01-11T02:11:42;71.30;;;19.03;;
18200;SDS011;9226;47.858;9.594;2024-01-11T02:14:10;66.97;;;20.67;;
18200;SDS011;9226;47.858;9.594;2024-01-11T02:16:36;65.57;;;18.13;;
18200;SDS011;9226;47.858;9.594;2024-01-11T02:19:02;68.87;;;19.97;;
18200;SDS011;9226;47.858;9.594;2024-01-11T02:21:29;72.37;;;20.77;;
18200;SDS011;9226;47.858;9.594;2024-01-11T02:24:04;66.73;;;20.80;;
18200;SDS011;9226;47.858;9.594;2024-01-11T02:26:30;60.40;;;18.20;;
18200;SDS011;9226;47.858;9.594;2024-01-11T02:28:56;59.03;;;19.07;;
18200;SDS011;9226;47.858;9.594;2024-01-11T02:31:21;69.03;;;18.63;;
18200;SDS011;9226;47.858;9.594;2024-01-11T02:33:47;56.40;;;17.43;;
18200;SDS011;9226;47.858;9.594;2024-01-11T02:36:13;63.50;;;18.57;;
18200;SDS011;9226;47.858;9.594;2024-01-11T02:38:39;65.87;;;19.63;;
18200;SDS011;9226;47.858;9.594;2024-01-11T02:41:08;60.60;;;18.90;;
18200;SDS011;9226;47.858;9.594;2024-01-11T02:43:34;62.97;;;18.90;;
18200;SDS011;9226;47.858;9.594;2024-01-11T02:46:03;64.80;;;18.43;;
18200;SDS011;9226;47.858;9.594;2024-01-11T02:48:28;57.33;;;17.97;;
18200;SDS011;9226;47.858;9.594;2024-01-11T02:50:58;65.20;;;18.57;;
18200;SDS011;9226;47.858;9.594;2024-01-11T02:53:23;59.30;;;17.63;;
18200;SDS011;9226;47.858;9.594;2024-01-11T02:55:49;62.73;;;17.20;;
18200;SDS011;9226;47.858;9.594;2024-01-11T02:58:15;63.27;;;18.37;;
18200;SDS011;9226;47.858;9.594;2024-01-11T03:00:41;66.57;;;17.20;;
18200;SDS011;9226;47.858;9.594;2024-01-11T03:03:06;56.93;;;17.17;;
18200;SDS011;9226;47.858;9.594;2024-01-11T03:05:32;73.80;;;19.07;;
18200;SDS011;9226;47.858;9.594;2024-01-11T03:07:57;63.90;;;18.80;;
18200;SDS011;9226;47.858;9.594;2024-01-11T03:10:23;52.63;;;17.90;;
18200;SDS011;9226;47.858;9.594;2024-01-11T03:12:48;54.67;;;18.13;;
18200;SDS011;9226;47.858;9.594;2024-01-11T03:15:14;52.03;;;17.80;;
18200;SDS011;9226;47.858;9.594;2024-01-11T03:17:40;59.63;;;16.80;;
18200;SDS011;9226;47.858;9.594;2024-01-11T03:20:06;65.20;;;18.03;;
18200;SDS011;9226;47.858;9.594;2024-01-11T03:22:32;75.00;;;19.30;;
18200;SDS011;9226;47.858;9.594;2024-01-11T03:24:57;51.33;;;17.07;;
18200;SDS011;9226;47.858;9.594;2024-01-11T03:27:23;54.70;;;16.63;;
18200;SDS011;9226;47.858;9.594;2024-01-11T03:29:48;61.90;;;19.03;;
18200;SDS011;9226;47.858;9.594;2024-01-11T03:32:15;53.60;;;17.37;;
18200;SDS011;9226;47.858;9.594;2024-01-11T03:34:40;51.67;;;15.57;;
18200;SDS011;9226;47.858;9.594;2024-01-11T03:37:06;55.13;;;18.60;;
18200;SDS011;9226;47.858;9.594;2024-01-11T03:39:31;67.77;;;18.07;;
18200;SDS011;9226;47.858;9.594;2024-01-11T03:41:57;81.60;;;17.63;;
18200;SDS011;9226;47.858;9.594;2024-01-11T03:44:22;90.23;;;15.83;;
18200;SDS011;9226;47.858;9.594;2024-01-11T03:46:48;48.53;;;14.80;;
18200;SDS011;9226;47.858;9.594;2024-01-11T03:49:13;46.27;;;14.83;;
18200;SDS011;9226;47.858;9.594;2024-01-11T03:51:39;57.23;;;16.50;;
18200;SDS011;9226;47.858;9.594;2024-01-11T03:54:05;61.10;;;16.37;;
18200;SDS011;9226;47.858;9.594;2024-01-11T03:56:30;57.20;;;16.80;;
18200;SDS011;9226;47.858;9.594;2024-01-11T03:58:56;58.60;;;16.60;;
18200;SDS011;9226;47.858;9.594;2024-01-11T04:01:21;59.10;;;15.70;;
18200;SDS011;9226;47.858;9.594;2024-01-11T04:03:47;51.03;;;17.07;;
18200;SDS011;9226;47.858;9.594;2024-01-11T04:06:21;56.27;;;15.53;;
18200;SDS011;9226;47.858;9.594;2024-01-11T04:08:48;46.27;;;14.50;;
18200;SDS011;9226;47.858;9.594;2024-01-11T04:11:14;52.87;;;15.60;;
18200;SDS011;9226;47.858;9.594;2024-01-11T04:13:39;61.80;;;16.50;;
18200;SDS011;9226;47.858;9.594;2024-01-11T04:16:05;57.50;;;15.40;;
18200;SDS011;9226;47.858;9.594;2024-01-11T04:18:31;41.67;;;15.30;;
18200;SDS011;9226;47.858;9.594;2024-01-11T04:20:57;45.07;;;14.93;;
18200;SDS011;9226;47.858;9.594;2024-01-11T04:23:23;52.13;;;14.73;;
18200;SDS011;9226;47.858;9.594;2024-01-11T04:25:48;94.70;;;14.77;;
18200;SDS011;9226;47.858;9.594;2024-01-11T04:28:15;52.53;;;15.63;;
18200;SDS011;9226;47.858;9.594;2024-01-11T04:30:41;74.87;;;14.13;;
18200;SDS011;9226;47.858;9.594;2024-01-11T04:33:06;59.17;;;15.57;;
18200;SDS011;9226;47.858;9.594;2024-01-11T04:35:32;44.70;;;13.30;;
18200;SDS011;9226;47.858;9.594;2024-01-11T04:37:57;47.00;;;13.27;;
18200;SDS011;9226;47.858;9.594;2024-01-11T04:40:23;40.43;;;13.13;;
18200;SDS011;9226;47.858;9.594;2024-01-11T04:42:48;40.87;;;12.87;;
18200;SDS011;9226;47.858;9.594;2024-01-11T04:45:14;45.37;;;14.27;;
18200;SDS011;9226;47.858;9.594;2024-01-11T04:47:39;41.37;;;12.33;;
18200;SDS011;9226;47.858;9.594;2024-01-11T04:50:06;37.23;;;12.10;;
18200;SDS011;9226;47.858;9.594;2024-01-11T04:52:32;46.70;;;13.10;;
18200;SDS011;9226;47.858;9.594;2024-01-11T04:54:57;36.00;;;10.40;;
18200;SDS011;9226;47.858;9.594;2024-01-11T04:57:23;37.97;;;11.67;;
18200;SDS011;9226;47.858;9.594;2024-01-11T04:59:48;35.20;;;10.13;;
18200;SDS011;9226;47.858;9.594;2024-01-11T05:02:13;37.27;;;11.20;;
18200;SDS011;9226;47.858;9.594;2024-01-11T05:04:39;39.97;;;10.13;;
18200;SDS011;9226;47.858;9.594;2024-01-11T05:07:04;34.87;;;11.07;;
18200;SDS011;9226;47.858;9.594;2024-01-11T05:09:30;37.37;;;11.97;;
18200;SDS011;9226;47.858;9.594;2024-01-11T05:11:55;31.23;;;9.57;;
18200;SDS011;9226;47.858;9.594;2024-01-11T05:14:20;37.80;;;11.50;;
18200;SDS011;9226;47.858;9.594;2024-01-11T05:16:46;36.47;;;10.37;;
18200;SDS011;9226;47.858;9.594;2024-01-11T05:19:11;35.33;;;10.47;;
18200;SDS011;9226;47.858;9.594;2024-01-11T05:21:37;34.13;;;10.97;;
18200;SDS011;9226;47.858;9.594;2024-01-11T05:24:02;30.53;;;11.87;;
18200;SDS011;9226;47.858;9.594;2024-01-11T05:26:28;38.53;;;11.80;;
18200;SDS011;9226;47.858;9.594;2024-01-11T05:28:53;37.23;;;10.73;;
18200;SDS011;9226;47.858;9.594;2024-01-11T05:31:18;32.07;;;10.00;;
18200;SDS011;9226;47.858;9.594;2024-01-11T05:33:44;42.07;;;12.53;;
18200;SDS011;9226;47.858;9.594;2024-01-11T05:36:10;36.43;;;11.57;;
18200;SDS011;9226;47.858;9.594;2024-01-11T05:38:37;39.00;;;12.23;;
18200;SDS011;9226;47.858;9.594;2024-01-11T05:41:04;35.43;;;12.00;;
18200;SDS011;9226;47.858;9.594;2024-01-11T05:43:29;34.73;;;9.83;;
18200;SDS011;9226;47.858;9.594;2024-01-11T05:45:54;35.03;;;11.03;;
18200;SDS011;9226;47.858;9.594;2024-01-11T05:48:20;37.80;;;9.93;;
18200;SDS011;9226;47.858;9.594;2024-01-11T05:50:45;34.53;;;11.87;;
18200;SDS011;9226;47.858;9.594;2024-01-11T05:53:11;30.00;;;10.90;;
18200;SDS011;9226;47.858;9.594;2024-01-11T05:55:37;39.17;;;12.13;;
18200;SDS011;9226;47.858;9.594;2024-01-11T05:58:03;36.70;;;10.53;;
18200;SDS011;9226;47.858;9.594;2024-01-11T06:00:28;35.43;;;10.63;;
18200;SDS011;9226;47.858;9.594;2024-01-11T06:02:54;21.80;;;8.90;;
18200;SDS011;9226;47.858;9.594;2024-01-11T06:05:19;32.77;;;10.47;;
18200;SDS011;9226;47.858;9.594;2024-01-11T06:07:45;30.70;;;9.90;;
18200;SDS011;9226;47.858;9.594;2024-01-11T06:10:10;30.03;;;10.53;;
18200;SDS011;9226;47.858;9.594;2024-01-11T06:12:37;29.83;;;9.90;;
18200;SDS011;9226;47.858;9.594;2024-01-11T06:15:02;33.23;;;9.07;;
18200;SDS011;9226;47.858;9.594;2024-01-11T06:17:28;27.80;;;9.73;;
18200;SDS011;9226;47.858;9.594;2024-01-11T06:19:54;30.50;;;9.67;;
18200;SDS011;9226;47.858;9.594;2024-01-11T06:22:20;28.83;;;9.03;;
18200;SDS011;9226;47.858;9.594;2024-01-11T06:24:45;31.20;;;9.67;;
18200;SDS011;9226;47.858;9.594;2024-01-11T06:27:11;33.93;;;11.13;;
18200;SDS011;9226;47.858;9.594;2024-01-11T06:29:36;30.40;;;9.63;;
18200;SDS011;9226;47.858;9.594;2024-01-11T06:32:02;37.03;;;10.57;;
18200;SDS011;9226;47.858;9.594;2024-01-11T06:34:27;30.80;;;9.73;;
18200;SDS011;9226;47.858;9.594;2024-01-11T06:36:53;31.10;;;9.83;;
18200;SDS011;9226;47.858;9.594;2024-01-11T06:39:22;38.00;;;10.20;;
18200;SDS011;9226;47.858;9.594;2024-01-11T06:41:47;33.90;;;11.73;;
18200;SDS011;9226;47.858;9.594;2024-01-11T06:44:12;39.47;;;12.40;;
18200;SDS011;9226;47.858;9.594;2024-01-11T06:46:38;31.10;;;10.17;;
18200;SDS011;9226;47.858;9.594;2024-01-11T06:49:07;31.73;;;9.77;;
18200;SDS011;9226;47.858;9.594;2024-01-11T06:51:33;43.10;;;11.23;;
18200;SDS011;9226;47.858;9.594;2024-01-11T06:53:59;28.40;;;9.97;;
18200;SDS011;9226;47.858;9.594;2024-01-11T06:56:26;32.20;;;8.90;;
18200;SDS011;9226;47.858;9.594;2024-01-11T06:58:52;32.03;;;10.30;;
18200;SDS011;9226;47.858;9.594;2024-01-11T07:01:17;32.57;;;9.50;;
18200;SDS011;9226;47.858;9.594;2024-01-11T07:03:43;29.70;;;8.80;;
18200;SDS011;9226;47.858;9.594;2024-01-11T07:06:09;27.23;;;9.03;;
18200;SDS011;9226;47.858;9.594;2024-01-11T07:08:35;30.67;;;9.83;;
18200;SDS011;9226;47.858;9.594;2024-01-11T07:11:00;31.37;;;9.50;;
18200;SDS011;9226;47.858;9.594;2024-01-11T07:13:27;33.03;;;10.70;;
18200;SDS011;9226;47.858;9.594;2024-01-11T07:15:53;31.23;;;9.97;;
18200;SDS011;9226;47.858;9.594;2024-01-11T07:18:20;32.97;;;9.57;;
18200;SDS011;9226;47.858;9.594;2024-01-11T07:20:46;28.03;;;8.23;;
18200;SDS011;9226;47.858;9.594;2024-01-11T07:23:12;22.97;;;8.63;;
18200;SDS011;9226;47.858;9.594;2024-01-11T07:25:38;33.07;;;9.53;;
18200;SDS011;9226;47.858;9.594;2024-01-11T07:28:04;28.23;;;9.90;;
18200;SDS011;9226;47.858;9.594;2024-01-11T07:30:30;28.57;;;9.47;;
18200;SDS011;9226;47.858;9.594;2024-01-11T07:32:55;25.43;;;9.30;;
18200;SDS011;9226;47.858;9.594;2024-01-11T07:35:20;26.23;;;8.37;;
18200;SDS011;9226;47.858;9.594;2024-01-11T07:37:46;22.70;;;7.30;;
18200;SDS011;9226;47.858;9.594;2024-01-11T07:40:12;30.90;;;8.90;;
18200;SDS011;9226;47.858;9.594;2024-01-11T07:42:38;28.07;;;10.00;;
18200;SDS011;9226;47.858;9.594;2024-01-11T07:45:05;30.40;;;9.23;;
18200;SDS011;9226;47.858;9.594;2024-01-11T07:47:31;28.93;;;8.23;;
18200;SDS011;9226;47.858;9.594;2024-01-11T07:49:57;30.70;;;9.33;;
18200;SDS011;9226;47.858;9.594;2024-01-11T07:52:23;33.77;;;9.10;;
18200;SDS011;9226;47.858;9.594;2024-01-11T07:54:48;24.00;;;8.57;;
18200;SDS011;9226;47.858;9.594;2024-01-11T07:57:14;31.70;;;9.40;;
18200;SDS011;9226;47.858;9.594;2024-01-11T07:59:39;33.77;;;10.53;;
18200;SDS011;9226;47.858;9.594;2024-01-11T08:02:05;28.00;;;8.60;;
18200;SDS011;9226;47.858;9.594;2024-01-11T08:04:31;25.03;;;8.53;;
18200;SDS011;9226;47.858;9.594;2024-01-11T08:06:57;28.27;;;8.33;;
18200;SDS011;9226;47.858;9.594;2024-01-11T08:09:27;30.70;;;8.93;;
18200;SDS011;9226;47.858;9.594;2024-01-11T08:11:53;31.27;;;9.87;;
18200;SDS011;9226;47.858;9.594;2024-01-11T08:14:19;22.77;;;8.90;;
18200;SDS011;9226;47.858;9.594;2024-01-11T08:16:45;24.80;;;7.73;;
18200;SDS011;9226;47.858;9.594;2024-01-11T08:19:10;28.90;;;9.27;;
18200;SDS011;9226;47.858;9.594;2024-01-11T08:21:38;26.90;;;8.50;;
18200;SDS011;9226;47.858;9.594;2024-01-11T08:24:04;26.60;;;8.97;;
18200;SDS011;9226;47.858;9.594;2024-01-11T08:26:30;30.27;;;9.87;;
18200;SDS011;9226;47.858;9.594;2024-01-11T08:28:55;25.63;;;9.10;;
18200;SDS011;9226;47.858;9.594;2024-01-11T08:31:21;28.27;;;8.80;;
18200;SDS011;9226;47.858;9.594;2024-01-11T08:33:46;34.50;;;10.80;;
18200;SDS011;9226;47.858;9.594;2024-01-11T08:36:12;24.37;;;8.40;;
18200;SDS011;9226;47.858;9.594;2024-01-11T08:38:38;28.13;;;10.20;;
18200;SDS011;9226;47.858;9.594;2024-01-11T08:41:04;33.37;;;9.53;;
18200;SDS011;9226;47.858;9.594;2024-01-11T08:43:30;36.03;;;9.03;;
18200;SDS011;9226;47.858;9.594;2024-01-11T08:45:55;31.90;;;8.90;;
18200;SDS011;9226;47.858;9.594;2024-01-11T08:48:20;28.27;;;8.57;;
18200;SDS011;9226;47.858;9.594;2024-01-11T08:50:49;24.97;;;8.63;;
18200;SDS011;9226;47.858;9.594;2024-01-11T08:53:15;22.63;;;8.57;;
18200;SDS011;9226;47.858;9.594;2024-01-11T08:55:43;38.63;;;9.00;;
18200;SDS011;9226;47.858;9.594;2024-01-11T08:58:09;28.17;;;8.57;;
18200;SDS011;9226;47.858;9.594;2024-01-11T09:00:35;25.03;;;8.80;;
18200;SDS011;9226;47.858;9.594;2024-01-11T09:03:02;29.80;;;8.43;;
18200;SDS011;9226;47.858;9.594;2024-01-11T09:05:28;26.23;;;9.03;;
18200;SDS011;9226;47.858;9.594;2024-01-11T09:07:54;31.80;;;8.57;;
18200;SDS011;9226;47.858;9.594;2024-01-11T09:10:19;26.40;;;9.23;;
18200;SDS011;9226;47.858;9.594;2024-01-11T09:12:45;36.67;;;9.70;;
18200;SDS011;9226;47.858;9.594;2024-01-11T09:15:11;31.07;;;8.93;;
18200;SDS011;9226;47.858;9.594;2024-01-11T09:17:37;27.30;;;10.10;;
18200;SDS011;9226;47.858;9.594;2024-01-11T09:20:04;32.73;;;9.60;;
18200;SDS011;9226;47.858;9.594;2024-01-11T09:22:29;32.93;;;9.00;;
18200;SDS011;9226;47.858;9.594;2024-01-11T09:24:55;28.47;;;8.57;;
18200;SDS011;9226;47.858;9.594;2024-01-11T09:27:20;22.83;;;7.47;;
18200;SDS011;9226;47.858;9.594;2024-01-11T09:29:46;29.33;;;8.73;;
18200;SDS011;9226;47.858;9.594;2024-01-11T09:32:12;26.73;;;9.17;;
18200;SDS011;9226;47.858;9.594;2024-01-11T09:34:37;34.50;;;9.30;;
18200;SDS011;9226;47.858;9.594;2024-01-11T09:37:03;28.30;;;9.43;;
18200;SDS011;9226;47.858;9.594;2024-01-11T09:39:28;33.27;;;9.97;;
18200;SDS011;9226;47.858;9.594;2024-01-11T09:41:58;31.20;;;10.73;;
18200;SDS011;9226;47.858;9.594;2024-01-11T09:44:28;37.27;;;10.63;;
18200;SDS011;9226;47.858;9.594;2024-01-11T09:46:54;30.30;;;9.47;;
18200;SDS011;9226;47.858;9.594;2024-01-11T09:49:21;33.00;;;10.83;;
18200;SDS011;9226;47.858;9.594;2024-01-11T09:51:47;33.80;;;11.10;;
18200;SDS011;9226;47.858;9.594;2024-01-11T09:54:14;34.00;;;10.30;;
18200;SDS011;9226;47.858;9.594;2024-01-11T09:56:40;39.30;;;11.17;;
18200;SDS011;9226;47.858;9.594;2024-01-11T09:59:08;36.47;;;10.47;;
18200;SDS011;9226;47.858;9.594;2024-01-11T10:01:34;36.03;;;10.43;;
18200;SDS011;9226;47.858;9.594;2024-01-11T10:04:00;41.57;;;11.43;;
18200;SDS011;9226;47.858;9.594;2024-01-11T10:06:28;36.13;;;11.47;;
18200;SDS011;9226;47.858;9.594;2024-01-11T10:08:58;36.17;;;10.67;;
18200;SDS011;9226;47.858;9.594;2024-01-11T10:11:23;31.47;;;10.80;;
18200;SDS011;9226;47.858;9.594;2024-01-11T10:13:49;44.30;;;11.27;;
18200;SDS011;9226;47.858;9.594;2024-01-11T10:16:21;37.57;;;10.40;;
18200;SDS011;9226;47.858;9.594;2024-01-11T10:18:47;33.17;;;10.10;;
18200;SDS011;9226;47.858;9.594;2024-01-11T10:21:12;34.50;;;9.37;;
18200;SDS011;9226;47.858;9.594;2024-01-11T10:23:38;41.67;;;12.17;;
18200;SDS011;9226;47.858;9.594;2024-01-11T10:26:04;40.60;;;12.83;;
18200;SDS011;9226;47.858;9.594;2024-01-11T10:28:29;38.93;;;10.43;;
18200;SDS011;9226;47.858;9.594;2024-01-11T10:30:55;32.00;;;9.80;;
18200;SDS011;9226;47.858;9.594;2024-01-11T10:33:20;40.87;;;10.53;;
18200;SDS011;9226;47.858;9.594;2024-01-11T10:35:47;36.13;;;11.07;;
18200;SDS011;9226;47.858;9.594;2024-01-11T10:38:14;32.70;;;10.43;;
18200;SDS011;9226;47.858;9.594;2024-01-11T10:40:41;36.63;;;10.33;;
18200;SDS011;9226;47.858;9.594;2024-01-11T10:43:08;39.07;;;10.63;;
18200;SDS011;9226;47.858;9.594;2024-01-11T10:45:38;33.73;;;10.23;;
18200;SDS011;9226;47.858;9.594;2024-01-11T10:48:07;36.17;;;9.17;;
18200;SDS011;9226;47.858;9.594;2024-01-11T10:50:45;36.17;;;10.73;;
18200;SDS011;9226;47.858;9.594;2024-01-11T10:55:57;33.53;;;9.83;;
18200;SDS011;9226;47.858;9.594;2024-01-11T10:58:24;26.83;;;8.33;;
18200;SDS011;9226;47.858;9.594;2024-01-11T11:00:51;28.83;;;9.03;;
18200;SDS011;9226;47.858;9.594;2024-01-11T11:03:19;32.07;;;9.73;;
18200;SDS011;9226;47.858;9.594;2024-01-11T11:05:48;33.27;;;9.73;;
18200;SDS011;9226;47.858;9.594;2024-01-11T11:08:15;27.10;;;9.13;;
18200;SDS011;9226;47.858;9.594;2024-01-11T11:10:42;33.80;;;9.70;;
18200;SDS011;9226;47.858;9.594;2024-01-11T11:13:10;32.27;;;9.37;;
18200;SDS011;9226;47.858;9.594;2024-01-11T11:15:39;33.70;;;10.57;;
18200;SDS011;9226;47.858;9.594;2024-01-11T11:18:07;30.60;;;8.77;;
18200;SDS011;9226;47.858;9.594;2024-01-11T11:20:32;30.47;;;10.23;;
18200;SDS011;9226;47.858;9.594;2024-01-11T11:25:30;27.40;;;9.07;;
18200;SDS011;9226;47.858;9.594;2024-01-11T11:27:56;36.63;;;8.93;;
18200;SDS011;9226;47.858;9.594;2024-01-11T11:30:22;27.83;;;8.50;;
18200;SDS011;9226;47.858;9.594;2024-01-11T11:32:47;31.10;;;9.43;;
18200;SDS011;9226;47.858;9.594;2024-01-11T11:35:13;36.93;;;9.63;;
18200;SDS011;9226;47.858;9.594;2024-01-11T11:37:38;31.20;;;8.83;;
18200;SDS011;9226;47.858;9.594;2024-01-11T11:40:08;28.37;;;9.47;;
18200;SDS011;9226;47.858;9.594;2024-01-11T11:42:35;35.73;;;9.97;;
18200;SDS011;9226;47.858;9.594;2024-01-11T11:45:01;36.27;;;10.53;;
18200;SDS011;9226;47.858;9.594;2024-01-11T11:47:32;27.23;;;9.63;;
18200;SDS011;9226;47.858;9.594;2024-01-11T11:50:03;35.83;;;10.70;;
18200;SDS011;9226;47.858;9.594;2024-01-11T11:52:30;38.93;;;12.07;;
18200;SDS011;9226;47.858;9.594;2024-01-11T11:54:59;31.97;;;10.43;;
18200;SDS011;9226;47.858;9.594;2024-01-11T11:57:25;36.27;;;10.57;;
18200;SDS011;9226;47.858;9.594;2024-01-11T11:59:53;35.07;;;10.80;;
18200;SDS011;9226;47.858;9.594;2024-01-11T12:02:23;39.97;;;12.00;;
18200;SDS011;9226;47.858;9.594;2024-01-11T12:04:50;28.97;;;11.07;;
18200;SDS011;9226;47.858;9.594;2024-01-11T12:07:16;37.17;;;10.90;;
18200;SDS011;9226;47.858;9.594;2024-01-11T12:09:41;35.70;;;12.90;;
18200;SDS011;9226;47.858;9.594;2024-01-11T12:12:07;46.53;;;14.63;;
18200;SDS011;9226;47.858;9.594;2024-01-11T12:14:36;40.03;;;11.87;;
18200;SDS011;9226;47.858;9.594;2024-01-11T12:17:02;31.93;;;10.17;;
18200;SDS011;9226;47.858;9.594;2024-01-11T12:19:28;39.23;;;9.73;;
18200;SDS011;9226;47.858;9.594;2024-01-11T12:21:54;31.47;;;10.00;;
18200;SDS011;9226;47.858;9.594;2024-01-11T12:24:20;53.60;;;20.63;;
18200;SDS011;9226;47.858;9.594;2024-01-11T12:26:47;37.17;;;12.63;;
18200;SDS011;9226;47.858;9.594;2024-01-11T12:29:15;40.37;;;14.00;;
18200;SDS011;9226;47.858;9.594;2024-01-11T12:31:42;41.43;;;12.87;;
18200;SDS011;9226;47.858;9.594;2024-01-11T12:34:07;40.33;;;10.80;;
18200;SDS011;9226;47.858;9.594;2024-01-11T12:36:33;33.33;;;11.13;;
18200;SDS011;9226;47.858;9.594;2024-01-11T12:38:59;35.80;;;10.23;;
18200;SDS011;9226;47.858;9.594;2024-01-11T12:41:24;39.50;;;11.93;;
18200;SDS011;9226;47.858;9.594;2024-01-11T12:43:50;37.93;;;10.80;;
18200;SDS011;9226;47.858;9.594;2024-01-11T12:46:15;45.60;;;11.97;;
18200;SDS011;9226;47.858;9.594;2024-01-11T12:48:42;43.00;;;14.03;;
18200;SDS011;9226;47.858;9.594;2024-01-11T12:51:07;50.83;;;13.33;;
18200;SDS011;9226;47.858;9.594;2024-01-11T12:53:33;43.50;;;11.93;;
18200;SDS011;9226;47.858;9.594;2024-01-11T12:56:07;46.20;;;11.87;;
18200;SDS011;9226;47.858;9.594;2024-01-11T12:58:36;44.33;;;11.27;;
18200;SDS011;9226;47.858;9.594;2024-01-11T13:01:05;42.20;;;12.47;;
18200;SDS011;9226;47.858;9.594;2024-01-11T13:03:35;43.33;;;12.07;;
18200;SDS011;9226;47.858;9.594;2024-01-11T13:06:01;45.73;;;12.33;;
18200;SDS011;9226;47.858;9.594;2024-01-11T13:08:29;38.43;;;12.23;;
18200;SDS011;9226;47.858;9.594;2024-01-11T13:10:56;48.13;;;12.43;;
18200;SDS011;9226;47.858;9.594;2024-01-11T13:13:21;49.80;;;12.93;;
18200;SDS011;9226;47.858;9.594;2024-01-11T13:15:46;43.23;;;12.83;;
18200;SDS011;9226;47.858;9.594;2024-01-11T13:18:12;67.90;;;21.00;;
18200;SDS011;9226;47.858;9.594;2024-01-11T13:20:38;50.77;;;13.27;;
18200;SDS011;9226;47.858;9.594;2024-01-11T13:23:13;56.43;;;13.17;;
18200;SDS011;9226;47.858;9.594;2024-01-11T13:25:45;58.03;;;13.63;;
18200;SDS011;9226;47.858;9.594;2024-01-11T13:28:11;57.30;;;14.30;;
18200;SDS011;9226;47.858;9.594;2024-01-11T13:30:40;47.13;;;13.60;;
18200;SDS011;9226;47.858;9.594;2024-01-11T13:33:06;55.30;;;15.10;;
18200;SDS011;9226;47.858;9.594;2024-01-11T13:35:33;51.43;;;12.60;;
18200;SDS011;9226;47.858;9.594;2024-01-11T13:38:02;53.93;;;13.77;;
18200;SDS011;9226;47.858;9.594;2024-01-11T13:40:28;49.10;;;13.23;;
18200;SDS011;9226;47.858;9.594;2024-01-11T13:42:54;46.43;;;12.40;;
18200;SDS011;9226;47.858;9.594;2024-01-11T13:45:23;55.53;;;13.27;;
18200;SDS011;9226;47.858;9.594;2024-01-11T13:47:49;52.27;;;13.53;;
18200;SDS011;9226;47.858;9.594;2024-01-11T13:50:15;56.73;;;13.80;;
18200;SDS011;9226;47.858;9.594;2024-01-11T13:52:41;52.13;;;14.67;;
18200;SDS011;9226;47.858;9.594;2024-01-11T13:55:08;56.63;;;15.20;;
18200;SDS011;9226;47.858;9.594;2024-01-11T13:57:35;51.57;;;13.27;;
18200;SDS011;9226;47.858;9.594;2024-01-11T14:00:04;50.00;;;13.47;;
18200;SDS011;9226;47.858;9.594;2024-01-11T14:02:30;60.60;;;16.10;;
18200;SDS011;9226;47.858;9.594;2024-01-11T14:04:56;49.90;;;13.73;;
18200;SDS011;9226;47.858;9.594;2024-01-11T14:07:22;51.37;;;14.77;;
18200;SDS011;9226;47.858;9.594;2024-01-11T14:09:47;53.97;;;14.33;;
18200;SDS011;9226;47.858;9.594;2024-01-11T14:12:13;61.07;;;17.50;;
18200;SDS011;9226;47.858;9.594;2024-01-11T14:14:40;58.87;;;15.40;;
18200;SDS011;9226;47.858;9.594;2024-01-11T14:17:06;51.20;;;14.73;;
18200;SDS011;9226;47.858;9.594;2024-01-11T14:19:32;61.07;;;15.97;;
18200;SDS011;9226;47.858;9.594;2024-01-11T14:21:57;53.77;;;15.50;;
18200;SDS011;9226;47.858;9.594;2024-01-11T14:24:23;58.50;;;13.00;;
18200;SDS011;9226;47.858;9.594;2024-01-11T14:26:50;62.20;;;15.67;;
18200;SDS011;9226;47.858;9.594;2024-01-11T14:29:15;56.20;;;15.07;;
18200;SDS011;9226;47.858;9.594;2024-01-11T14:31:41;55.60;;;14.93;;
18200;SDS011;9226;47.858;9.594;2024-01-11T14:34:06;50.23;;;14.37;;
18200;SDS011;9226;47.858;9.594;2024-01-11T14:36:31;53.33;;;14.50;;